sensor_id;sensor_type;location;lat;lon;timestamp;pressure;altitude;pressure_sealevel;temperature;humidity
46846;BME280;33947;46.804;134.252;2023-03-21T00:01:11;100277.16;;;7.74;30.95
46846;BME280;33947;46.804;134.252;2023-03-21T00:04:15;100269.34;;;7.68;30.98
46846;BME280;33947;46.804;134.252;2023-03-21T00:07:20;100276.63;;;7.55;31.43
46846;BME280;33947;46.804;134.252;2023-03-21T00:10:24;100263.25;;;8.08;31.12
46846;BME280;33947;46.804;134.252;2023-03-21T00:13:43;100254.03;;;7.86;30.79
46846;BME280;33947;46.804;134.252;2023-03-21T00:16:47;100267.19;;;7.89;30.92
46846;BME280;33947;46.804;134.252;2023-03-21T00:19:55;100269.28;;;8.15;31.33
46846;BME280;33947;46.804;134.252;2023-03-21T00:23:00;100271.94;;;8.17;30.76
46846;BME280;33947;46.804;134.252;2023-03-21T00:26:07;100267.38;;;8.63;30.69
46846;BME280;33947;46.804;134.252;2023-03-21T00:29:12;100265.22;;;8.80;30.31
46846;BME280;33947;46.804;134.252;2023-03-21T00:32:17;100268.31;;;9.00;30.36
46846;BME280;33947;46.804;134.252;2023-03-21T00:35:22;100272.44;;;9.10;30.05
46846;BME280;33947;46.804;134.252;2023-03-21T00:38:46;100268.97;;;9.08;30.09
46846;BME280;33947;46.804;134.252;2023-03-21T00:41:50;100267.06;;;9.48;30.19
46846;BME280;33947;46.804;134.252;2023-03-21T00:44:54;100266.19;;;9.80;29.62
46846;BME280;33947;46.804;134.252;2023-03-21T00:47:59;100255.63;;;10.09;28.99
46846;BME280;33947;46.804;134.252;2023-03-21T00:51:11;100276.44;;;9.93;28.56
46846;BME280;33947;46.804;134.252;2023-03-21T00:54:16;100266.63;;;10.26;28.79
46846;BME280;33947;46.804;134.252;2023-03-21T00:57:20;100268.81;;;10.72;27.86
46846;BME280;33947;46.804;134.252;2023-03-21T01:00:40;100278.91;;;11.41;28.22
46846;BME280;33947;46.804;134.252;2023-03-21T01:03:45;100291.69;;;11.57;27.98
46846;BME280;33947;46.804;134.252;2023-03-21T01:06:54;100293.91;;;11.95;27.36
46846;BME280;33947;46.804;134.252;2023-03-21T01:10:00;100274.75;;;12.56;27.17
46846;BME280;33947;46.804;134.252;2023-03-21T01:13:05;100286.38;;;12.98;26.89
46846;BME280;33947;46.804;134.252;2023-03-21T01:16:09;100286.69;;;13.34;26.22
46846;BME280;33947;46.804;134.252;2023-03-21T01:19:16;100285.22;;;13.49;26.69
46846;BME280;33947;46.804;134.252;2023-03-21T01:22:41;100285.28;;;13.47;25.49
46846;BME280;33947;46.804;134.252;2023-03-21T01:25:47;100287.03;;;13.48;25.88
46846;BME280;33947;46.804;134.252;2023-03-21T01:28:52;100275.91;;;13.37;26.39
46846;BME280;33947;46.804;134.252;2023-03-21T01:31:58;100271.72;;;13.72;26.22
46846;BME280;33947;46.804;134.252;2023-03-21T01:35:02;100282.91;;;13.39;26.68
46846;BME280;33947;46.804;134.252;2023-03-21T01:38:08;100275.09;;;13.97;26.63
46846;BME280;33947;46.804;134.252;2023-03-21T01:41:27;100255.34;;;14.39;26.78
46846;BME280;33947;46.804;134.252;2023-03-21T01:44:59;100279.19;;;14.44;25.77
46846;BME280;33947;46.804;134.252;2023-03-21T01:48:13;100243.50;;;14.07;26.55
46846;BME280;33947;46.804;134.252;2023-03-21T01:51:25;100262.69;;;13.96;24.87
46846;BME280;33947;46.804;134.252;2023-03-21T01:54:34;100251.97;;;13.77;25.36
46846;BME280;33947;46.804;134.252;2023-03-21T01:57:50;100255.81;;;14.09;25.54
46846;BME280;33947;46.804;134.252;2023-03-21T02:01:33;100249.91;;;13.63;25.83
46846;BME280;33947;46.804;134.252;2023-03-21T02:04:41;100255.44;;;13.79;24.85
46846;BME280;33947;46.804;134.252;2023-03-21T02:07:56;100252.59;;;12.99;26.06
46846;BME280;33947;46.804;134.252;2023-03-21T02:11:02;100249.44;;;12.89;26.37
46846;BME280;33947;46.804;134.252;2023-03-21T02:14:17;100247.53;;;12.70;26.28
46846;BME280;33947;46.804;134.252;2023-03-21T02:28:59;100234.41;;;11.96;27.75
46846;BME280;33947;46.804;134.252;2023-03-21T02:39:27;100242.91;;;11.82;27.58
46846;BME280;33947;46.804;134.252;2023-03-21T02:42:58;100238.97;;;11.92;27.74
46846;BME280;33947;46.804;134.252;2023-03-21T02:46:24;100194.19;;;11.80;28.31
46846;BME280;33947;46.804;134.252;2023-03-21T02:50:17;100224.84;;;12.38;28.74
46846;BME280;33947;46.804;134.252;2023-03-21T02:53:21;100222.19;;;12.60;28.25
46846;BME280;33947;46.804;134.252;2023-03-21T02:56:26;100227.75;;;12.76;27.23
46846;BME280;33947;46.804;134.252;2023-03-21T02:59:32;100220.06;;;12.68;28.06
46846;BME280;33947;46.804;134.252;2023-03-21T03:02:51;100211.34;;;12.42;27.29
46846;BME280;33947;46.804;134.252;2023-03-21T03:06:26;100217.22;;;12.28;26.90
46846;BME280;33947;46.804;134.252;2023-03-21T03:09:46;100220.13;;;12.22;26.94
46846;BME280;33947;46.804;134.252;2023-03-21T03:13:20;100218.69;;;12.36;26.73
46846;BME280;33947;46.804;134.252;2023-03-21T03:26:36;100203.75;;;12.09;28.49
46846;BME280;33947;46.804;134.252;2023-03-21T03:29:45;100209.28;;;11.79;27.57
46846;BME280;33947;46.804;134.252;2023-03-21T03:33:00;100203.41;;;11.95;27.60
46846;BME280;33947;46.804;134.252;2023-03-21T03:36:10;100194.53;;;11.94;28.04
46846;BME280;33947;46.804;134.252;2023-03-21T03:39:40;100201.25;;;12.05;28.66
46846;BME280;33947;46.804;134.252;2023-03-21T03:42:53;100196.69;;;12.08;27.41
46846;BME280;33947;46.804;134.252;2023-03-21T03:46:15;100208.38;;;12.04;27.60
46846;BME280;33947;46.804;134.252;2023-03-21T03:49:23;100193.91;;;12.11;27.84
46846;BME280;33947;46.804;134.252;2023-03-21T03:52:33;100191.00;;;12.18;27.21
46846;BME280;33947;46.804;134.252;2023-03-21T03:55:50;100188.75;;;12.07;27.62
46846;BME280;33947;46.804;134.252;2023-03-21T03:58:57;100174.81;;;12.00;27.90
46846;BME280;33947;46.804;134.252;2023-03-21T04:02:19;100174.81;;;12.00;27.75
46846;BME280;33947;46.804;134.252;2023-03-21T04:05:25;100163.88;;;11.84;27.53
46846;BME280;33947;46.804;134.252;2023-03-21T04:08:30;100177.13;;;12.09;27.56
46846;BME280;33947;46.804;134.252;2023-03-21T04:11:35;100167.78;;;11.73;28.36
46846;BME280;33947;46.804;134.252;2023-03-21T04:14:40;100163.91;;;11.82;28.58
46846;BME280;33947;46.804;134.252;2023-03-21T04:17:52;100177.47;;;12.00;28.37
46846;BME280;33947;46.804;134.252;2023-03-21T04:20:58;100160.97;;;11.90;27.97
46846;BME280;33947;46.804;134.252;2023-03-21T04:24:04;100148.88;;;11.81;28.19
46846;BME280;33947;46.804;134.252;2023-03-21T04:27:10;100159.72;;;12.00;28.37
46846;BME280;33947;46.804;134.252;2023-03-21T04:30:16;100156.88;;;12.05;27.79
46846;BME280;33947;46.804;134.252;2023-03-21T04:33:40;100138.16;;;12.07;27.93
46846;BME280;33947;46.804;134.252;2023-03-21T04:36:44;100133.47;;;11.90;28.03
46846;BME280;33947;46.804;134.252;2023-03-21T04:39:50;100149.44;;;12.13;28.80
46846;BME280;33947;46.804;134.252;2023-03-21T04:42:55;100137.44;;;12.25;29.45
46846;BME280;33947;46.804;134.252;2023-03-21T04:46:01;100126.28;;;12.15;29.39
46846;BME280;33947;46.804;134.252;2023-03-21T04:49:06;100142.34;;;12.14;29.83
46846;BME280;33947;46.804;134.252;2023-03-21T04:52:10;100107.16;;;12.06;28.93
46846;BME280;33947;46.804;134.252;2023-03-21T04:55:14;100115.13;;;12.28;29.36
46846;BME280;33947;46.804;134.252;2023-03-21T04:58:20;100129.13;;;12.55;28.78
46846;BME280;33947;46.804;134.252;2023-03-21T05:01:25;100124.53;;;12.37;29.07
46846;BME280;33947;46.804;134.252;2023-03-21T05:04:33;100122.31;;;12.26;29.06
46846;BME280;33947;46.804;134.252;2023-03-21T05:07:38;100122.75;;;12.37;29.33
46846;BME280;33947;46.804;134.252;2023-03-21T05:10:42;100123.84;;;12.54;29.50
46846;BME280;33947;46.804;134.252;2023-03-21T05:13:47;100117.72;;;12.52;29.16
46846;BME280;33947;46.804;134.252;2023-03-21T05:16:52;100117.13;;;12.66;29.17
46846;BME280;33947;46.804;134.252;2023-03-21T05:19:59;100114.00;;;12.56;29.71
46846;BME280;33947;46.804;134.252;2023-03-21T05:23:03;100108.78;;;12.53;29.99
46846;BME280;33947;46.804;134.252;2023-03-21T05:26:08;100104.47;;;12.71;28.96
46846;BME280;33947;46.804;134.252;2023-03-21T05:29:23;100095.28;;;12.57;28.98
46846;BME280;33947;46.804;134.252;2023-03-21T05:32:35;100105.63;;;12.86;28.17
46846;BME280;33947;46.804;134.252;2023-03-21T05:35:43;100102.44;;;12.78;28.55
46846;BME280;33947;46.804;134.252;2023-03-21T05:38:49;100098.28;;;12.91;27.16
46846;BME280;33947;46.804;134.252;2023-03-21T05:41:54;100102.53;;;12.95;27.20
46846;BME280;33947;46.804;134.252;2023-03-21T05:44:59;100093.28;;;12.83;26.81
46846;BME280;33947;46.804;134.252;2023-03-21T05:48:06;100087.44;;;12.96;26.22
46846;BME280;33947;46.804;134.252;2023-03-21T05:51:26;100091.34;;;12.87;27.49
46846;BME280;33947;46.804;134.252;2023-03-21T05:54:31;100083.91;;;12.74;28.54
46846;BME280;33947;46.804;134.252;2023-03-21T05:57:36;100043.03;;;12.74;27.63
46846;BME280;33947;46.804;134.252;2023-03-21T06:00:48;100075.63;;;12.81;27.73
46846;BME280;33947;46.804;134.252;2023-03-21T06:04:00;100065.50;;;12.89;26.83
46846;BME280;33947;46.804;134.252;2023-03-21T06:07:08;100061.25;;;12.85;27.15
46846;BME280;33947;46.804;134.252;2023-03-21T06:10:15;100057.16;;;12.76;27.37
46846;BME280;33947;46.804;134.252;2023-03-21T06:13:23;100040.19;;;12.79;26.42
46846;BME280;33947;46.804;134.252;2023-03-21T06:16:28;100067.91;;;13.14;26.19
46846;BME280;33947;46.804;134.252;2023-03-21T06:19:37;100060.44;;;12.83;26.28
46846;BME280;33947;46.804;134.252;2023-03-21T06:22:46;100056.50;;;12.92;26.26
46846;BME280;33947;46.804;134.252;2023-03-21T06:25:51;100056.22;;;12.98;25.92
46846;BME280;33947;46.804;134.252;2023-03-21T06:28:58;100050.94;;;12.96;25.89
46846;BME280;33947;46.804;134.252;2023-03-21T06:32:05;100033.88;;;12.61;26.75
46846;BME280;33947;46.804;134.252;2023-03-21T06:35:10;100054.03;;;12.87;26.28
46846;BME280;33947;46.804;134.252;2023-03-21T06:38:15;100005.03;;;12.50;27.11
46846;BME280;33947;46.804;134.252;2023-03-21T06:41:19;100042.38;;;12.90;26.06
46846;BME280;33947;46.804;134.252;2023-03-21T06:44:32;100040.66;;;12.88;25.60
46846;BME280;33947;46.804;134.252;2023-03-21T06:47:41;100031.41;;;12.77;26.24
46846;BME280;33947;46.804;134.252;2023-03-21T06:50:59;100030.06;;;12.66;26.59
46846;BME280;33947;46.804;134.252;2023-03-21T06:54:10;100016.34;;;12.55;26.99
46846;BME280;33947;46.804;134.252;2023-03-21T06:57:21;100021.19;;;12.45;26.91
46846;BME280;33947;46.804;134.252;2023-03-21T07:00:25;100033.53;;;12.48;27.57
46846;BME280;33947;46.804;134.252;2023-03-21T07:03:30;100026.88;;;12.37;27.40
46846;BME280;33947;46.804;134.252;2023-03-21T07:06:36;100030.59;;;12.33;27.59
46846;BME280;33947;46.804;134.252;2023-03-21T07:09:41;100026.97;;;12.13;27.89
46846;BME280;33947;46.804;134.252;2023-03-21T07:12:45;100034.03;;;12.14;28.21
46846;BME280;33947;46.804;134.252;2023-03-21T07:16:08;100032.81;;;12.01;27.88
46846;BME280;33947;46.804;134.252;2023-03-21T07:19:12;100028.84;;;12.11;28.40
46846;BME280;33947;46.804;134.252;2023-03-21T07:22:18;100030.47;;;11.92;28.62
46846;BME280;33947;46.804;134.252;2023-03-21T07:25:22;100027.59;;;11.98;28.70
46846;BME280;33947;46.804;134.252;2023-03-21T07:28:27;100021.81;;;11.86;28.82
46846;BME280;33947;46.804;134.252;2023-03-21T07:31:33;100019.22;;;11.85;28.99
46846;BME280;33947;46.804;134.252;2023-03-21T07:34:38;100024.22;;;11.93;28.99
46846;BME280;33947;46.804;134.252;2023-03-21T07:37:43;100027.66;;;11.74;29.64
46846;BME280;33947;46.804;134.252;2023-03-21T07:40:51;100021.38;;;11.75;29.21
46846;BME280;33947;46.804;134.252;2023-03-21T07:43:55;100020.53;;;11.75;29.63
46846;BME280;33947;46.804;134.252;2023-03-21T07:47:07;100012.66;;;11.71;29.55
46846;BME280;33947;46.804;134.252;2023-03-21T07:50:13;100012.47;;;11.76;29.50
46846;BME280;33947;46.804;134.252;2023-03-21T07:53:19;100016.31;;;11.69;29.18
46846;BME280;33947;46.804;134.252;2023-03-21T07:56:23;100014.59;;;11.68;29.46
46846;BME280;33947;46.804;134.252;2023-03-21T07:59:27;99997.28;;;11.57;29.28
46846;BME280;33947;46.804;134.252;2023-03-21T08:02:31;100013.09;;;11.61;29.22
46846;BME280;33947;46.804;134.252;2023-03-21T08:05:36;100015.25;;;11.51;29.23
46846;BME280;33947;46.804;134.252;2023-03-21T08:08:41;100014.09;;;11.58;29.09
46846;BME280;33947;46.804;134.252;2023-03-21T08:11:46;99999.03;;;11.35;29.84
46846;BME280;33947;46.804;134.252;2023-03-21T08:14:50;100013.38;;;11.31;29.77
46846;BME280;33947;46.804;134.252;2023-03-21T08:17:55;100005.75;;;11.21;29.72
46846;BME280;33947;46.804;134.252;2023-03-21T08:21:01;100009.50;;;11.15;30.16
46846;BME280;33947;46.804;134.252;2023-03-21T08:24:06;100017.66;;;11.11;29.89
46846;BME280;33947;46.804;134.252;2023-03-21T08:27:11;100018.06;;;11.00;30.32
46846;BME280;33947;46.804;134.252;2023-03-21T08:30:18;100016.06;;;10.81;30.51
46846;BME280;33947;46.804;134.252;2023-03-21T08:33:23;100021.53;;;10.77;30.11
46846;BME280;33947;46.804;134.252;2023-03-21T08:36:28;100021.34;;;10.57;31.02
46846;BME280;33947;46.804;134.252;2023-03-21T08:39:34;100017.63;;;10.36;31.09
46846;BME280;33947;46.804;134.252;2023-03-21T08:42:39;100013.63;;;10.24;31.60
46846;BME280;33947;46.804;134.252;2023-03-21T08:45:43;100012.50;;;10.05;31.58
46846;BME280;33947;46.804;134.252;2023-03-21T08:48:48;100012.03;;;9.92;31.83
46846;BME280;33947;46.804;134.252;2023-03-21T08:51:56;100011.56;;;9.79;32.49
46846;BME280;33947;46.804;134.252;2023-03-21T08:55:01;100006.78;;;9.33;33.31
46846;BME280;33947;46.804;134.252;2023-03-21T08:58:05;100008.97;;;8.89;34.42
46846;BME280;33947;46.804;134.252;2023-03-21T09:01:10;100016.84;;;8.59;35.01
46846;BME280;33947;46.804;134.252;2023-03-21T09:04:18;99997.91;;;8.39;35.26
46846;BME280;33947;46.804;134.252;2023-03-21T09:07:24;100019.56;;;8.57;35.05
46846;BME280;33947;46.804;134.252;2023-03-21T09:10:29;100004.91;;;8.42;35.33
46846;BME280;33947;46.804;134.252;2023-03-21T09:13:33;100007.97;;;8.61;34.69
46846;BME280;33947;46.804;134.252;2023-03-21T09:16:38;100002.69;;;8.60;34.55
46846;BME280;33947;46.804;134.252;2023-03-21T09:19:43;100026.78;;;8.49;35.82
46846;BME280;33947;46.804;134.252;2023-03-21T09:22:50;100030.09;;;8.22;35.69
46846;BME280;33947;46.804;134.252;2023-03-21T09:25:55;100046.88;;;8.23;36.09
46846;BME280;33947;46.804;134.252;2023-03-21T09:29:00;100035.19;;;8.66;34.52
46846;BME280;33947;46.804;134.252;2023-03-21T09:32:06;100031.50;;;9.04;33.80
46846;BME280;33947;46.804;134.252;2023-03-21T09:35:11;100030.59;;;9.05;33.85
46846;BME280;33947;46.804;134.252;2023-03-21T09:38:15;100043.94;;;9.02;33.77
46846;BME280;33947;46.804;134.252;2023-03-21T09:48:08;100062.56;;;8.98;33.89
46846;BME280;33947;46.804;134.252;2023-03-21T09:51:20;99985.97;;;8.59;34.18
46846;BME280;33947;46.804;134.252;2023-03-21T09:54:30;100050.59;;;9.15;33.82
46846;BME280;33947;46.804;134.252;2023-03-21T09:57:41;100048.03;;;9.12;33.86
46846;BME280;33947;46.804;134.252;2023-03-21T10:00:50;100050.66;;;9.14;33.92
46846;BME280;33947;46.804;134.252;2023-03-21T10:04:02;100059.25;;;8.90;34.55
46846;BME280;33947;46.804;134.252;2023-03-21T10:07:10;100037.00;;;8.96;34.62
46846;BME280;33947;46.804;134.252;2023-03-21T10:10:30;100062.84;;;9.19;34.19
46846;BME280;33947;46.804;134.252;2023-03-21T10:17:37;100068.44;;;8.42;36.35
46846;BME280;33947;46.804;134.252;2023-03-21T10:20:46;100080.84;;;8.04;37.38
46846;BME280;33947;46.804;134.252;2023-03-21T10:23:53;100058.53;;;7.76;37.53
46846;BME280;33947;46.804;134.252;2023-03-21T10:26:58;100083.47;;;7.23;39.32
46846;BME280;33947;46.804;134.252;2023-03-21T10:30:03;100087.69;;;6.88;40.65
46846;BME280;33947;46.804;134.252;2023-03-21T10:33:13;100092.88;;;6.93;39.82
46846;BME280;33947;46.804;134.252;2023-03-21T10:36:30;100070.28;;;6.28;41.90
46846;BME280;33947;46.804;134.252;2023-03-21T10:39:36;100094.91;;;6.28;41.29
46846;BME280;33947;46.804;134.252;2023-03-21T10:42:42;100094.69;;;6.41;40.95
46846;BME280;33947;46.804;134.252;2023-03-21T10:45:47;100086.44;;;6.07;41.72
46846;BME280;33947;46.804;134.252;2023-03-21T10:48:53;100076.56;;;5.61;42.80
46846;BME280;33947;46.804;134.252;2023-03-21T10:52:01;100104.06;;;5.40;43.05
46846;BME280;33947;46.804;134.252;2023-03-21T10:55:24;100119.09;;;5.31;44.78
46846;BME280;33947;46.804;134.252;2023-03-21T10:58:30;100114.31;;;4.86;46.30
46846;BME280;33947;46.804;134.252;2023-03-21T11:01:40;100116.94;;;4.85;45.66
46846;BME280;33947;46.804;134.252;2023-03-21T11:04:46;100096.81;;;4.82;45.21
46846;BME280;33947;46.804;134.252;2023-03-21T11:08:13;100109.94;;;4.85;45.95
46846;BME280;33947;46.804;134.252;2023-03-21T11:11:27;100102.69;;;5.06;45.52
46846;BME280;33947;46.804;134.252;2023-03-21T11:14:41;100104.16;;;5.32;44.67
46846;BME280;33947;46.804;134.252;2023-03-21T11:17:46;100094.28;;;5.46;43.68
46846;BME280;33947;46.804;134.252;2023-03-21T11:20:56;100085.34;;;5.60;44.68
46846;BME280;33947;46.804;134.252;2023-03-21T11:24:02;100091.69;;;5.43;44.52
46846;BME280;33947;46.804;134.252;2023-03-21T11:27:07;100100.41;;;4.75;51.49
46846;BME280;33947;46.804;134.252;2023-03-21T11:30:20;100099.97;;;4.25;50.34
46846;BME280;33947;46.804;134.252;2023-03-21T11:33:50;100094.91;;;4.00;51.00
46846;BME280;33947;46.804;134.252;2023-03-21T11:37:01;100107.75;;;4.35;48.85
46846;BME280;33947;46.804;134.252;2023-03-21T11:40:22;100101.75;;;4.23;51.00
46846;BME280;33947;46.804;134.252;2023-03-21T11:43:36;100106.28;;;3.99;49.94
46846;BME280;33947;46.804;134.252;2023-03-21T11:46:42;100102.84;;;3.89;49.82
46846;BME280;33947;46.804;134.252;2023-03-21T11:49:47;100104.78;;;3.62;54.57
46846;BME280;33947;46.804;134.252;2023-03-21T11:53:20;100103.91;;;3.54;52.48
46846;BME280;33947;46.804;134.252;2023-03-21T11:56:44;100100.41;;;3.55;52.26
46846;BME280;33947;46.804;134.252;2023-03-21T12:06:57;100111.06;;;3.21;53.06
46846;BME280;33947;46.804;134.252;2023-03-21T12:13:39;100116.38;;;3.05;53.48
46846;BME280;33947;46.804;134.252;2023-03-21T12:23:34;100103.28;;;2.83;55.60
46846;BME280;33947;46.804;134.252;2023-03-21T12:38:28;100111.19;;;2.80;55.92
46846;BME280;33947;46.804;134.252;2023-03-21T12:44:34;100111.22;;;2.66;55.48
46846;BME280;33947;46.804;134.252;2023-03-21T12:47:46;100100.72;;;2.57;55.36
46846;BME280;33947;46.804;134.252;2023-03-21T12:50:55;100125.22;;;2.68;54.74
46846;BME280;33947;46.804;134.252;2023-03-21T12:58:01;100112.13;;;2.40;55.89
46846;BME280;33947;46.804;134.252;2023-03-21T13:01:00;100123.41;;;2.81;54.24
46846;BME280;33947;46.804;134.252;2023-03-21T13:07:50;100112.13;;;2.37;56.31
46846;BME280;33947;46.804;134.252;2023-03-21T13:10:57;100108.63;;;2.21;56.72
46846;BME280;33947;46.804;134.252;2023-03-21T13:14:20;100123.47;;;2.39;56.98
46846;BME280;33947;46.804;134.252;2023-03-21T13:17:41;100078.91;;;1.94;57.77
46846;BME280;33947;46.804;134.252;2023-03-21T13:20:53;100138.31;;;2.40;55.97
46846;BME280;33947;46.804;134.252;2023-03-21T13:24:50;100127.84;;;2.50;57.18
46846;BME280;33947;46.804;134.252;2023-03-21T13:27:38;100133.94;;;2.38;58.57
46846;BME280;33947;46.804;134.252;2023-03-21T13:30:42;100147.94;;;2.48;56.43
46846;BME280;33947;46.804;134.252;2023-03-21T13:33:49;100126.06;;;2.21;57.49
46846;BME280;33947;46.804;134.252;2023-03-21T13:36:55;100142.69;;;2.29;57.82
46846;BME280;33947;46.804;134.252;2023-03-21T13:40:04;100139.19;;;2.56;57.24
46846;BME280;33947;46.804;134.252;2023-03-21T13:43:52;100139.22;;;2.36;60.64
46846;BME280;33947;46.804;134.252;2023-03-21T13:47:05;100119.09;;;2.72;59.25
46846;BME280;33947;46.804;134.252;2023-03-21T13:50:29;100138.31;;;2.60;61.50
46846;BME280;33947;46.804;134.252;2023-03-21T14:00:28;100126.97;;;2.51;59.36
46846;BME280;33947;46.804;134.252;2023-03-21T14:03:34;100131.31;;;2.75;58.17
46846;BME280;33947;46.804;134.252;2023-03-21T14:06:41;100133.94;;;2.70;59.95
46846;BME280;33947;46.804;134.252;2023-03-21T14:09:49;100139.19;;;2.77;59.03
46846;BME280;33947;46.804;134.252;2023-03-21T14:12:56;100140.94;;;2.71;59.28
46846;BME280;33947;46.804;134.252;2023-03-21T14:16:13;100114.63;;;2.99;58.41
46846;BME280;33947;46.804;134.252;2023-03-21T14:19:18;100140.94;;;2.85;59.00
46846;BME280;33947;46.804;134.252;2023-03-21T14:22:23;100139.19;;;2.67;59.05
46846;BME280;33947;46.804;134.252;2023-03-21T14:25:33;100135.69;;;2.73;60.54
46846;BME280;33947;46.804;134.252;2023-03-21T14:28:50;100149.50;;;3.40;58.42
46846;BME280;33947;46.804;134.252;2023-03-21T14:31:55;100137.03;;;3.83;56.88
46846;BME280;33947;46.804;134.252;2023-03-21T14:35:00;100138.69;;;3.96;56.66
46846;BME280;33947;46.804;134.252;2023-03-21T14:38:06;100130.63;;;4.29;55.20
46846;BME280;33947;46.804;134.252;2023-03-21T14:41:26;100121.88;;;4.22;55.17
46846;BME280;33947;46.804;134.252;2023-03-21T14:44:37;100103.66;;;3.97;55.39
46846;BME280;33947;46.804;134.252;2023-03-21T14:48:00;100121.19;;;3.98;55.15
46846;BME280;33947;46.804;134.252;2023-03-21T14:51:06;100125.69;;;3.81;55.85
46846;BME280;33947;46.804;134.252;2023-03-21T14:54:15;100132.81;;;3.51;57.75
46846;BME280;33947;46.804;134.252;2023-03-21T14:57:23;100130.16;;;3.61;57.02
46846;BME280;33947;46.804;134.252;2023-03-21T15:00:30;100142.41;;;3.64;56.12
46846;BME280;33947;46.804;134.252;2023-03-21T15:03:35;100146.91;;;3.34;58.87
46846;BME280;33947;46.804;134.252;2023-03-21T15:06:58;100159.16;;;3.27;59.99
46846;BME280;33947;46.804;134.252;2023-03-21T15:10:14;100148.69;;;3.26;58.46
46846;BME280;33947;46.804;134.252;2023-03-21T15:13:24;100143.34;;;3.52;57.09
46846;BME280;33947;46.804;134.252;2023-03-21T15:16:30;100152.72;;;4.00;56.02
46846;BME280;33947;46.804;134.252;2023-03-21T15:19:37;100149.22;;;3.96;56.37
46846;BME280;33947;46.804;134.252;2023-03-21T15:22:54;100156.84;;;4.38;56.77
46846;BME280;33947;46.804;134.252;2023-03-21T15:26:02;100142.31;;;4.93;54.94
46846;BME280;33947;46.804;134.252;2023-03-21T15:29:07;100118.59;;;4.98;54.41
46846;BME280;33947;46.804;134.252;2023-03-21T15:32:15;100160.59;;;5.06;54.02
46846;BME280;33947;46.804;134.252;2023-03-21T15:35:26;100145.13;;;4.72;55.12
46846;BME280;33947;46.804;134.252;2023-03-21T15:38:39;100174.47;;;4.27;56.58
46846;BME280;33947;46.804;134.252;2023-03-21T15:42:01;100167.63;;;3.98;57.29
46846;BME280;33947;46.804;134.252;2023-03-21T15:45:19;100141.56;;;3.57;58.11
46846;BME280;33947;46.804;134.252;2023-03-21T15:48:27;100184.44;;;3.67;57.79
46846;BME280;33947;46.804;134.252;2023-03-21T15:51:31;100188.00;;;3.46;57.46
46846;BME280;33947;46.804;134.252;2023-03-21T15:54:48;100185.50;;;3.01;59.87
46846;BME280;33947;46.804;134.252;2023-03-21T15:58:02;100211.69;;;3.32;59.31
46846;BME280;33947;46.804;134.252;2023-03-21T16:01:18;100207.34;;;2.98;60.09
46846;BME280;33947;46.804;134.252;2023-03-21T16:04:23;100204.72;;;3.12;58.76
46846;BME280;33947;46.804;134.252;2023-03-21T16:07:32;100215.22;;;2.92;61.84
46846;BME280;33947;46.804;134.252;2023-03-21T16:10:37;100218.75;;;2.75;59.59
46846;BME280;33947;46.804;134.252;2023-03-21T16:13:42;100223.13;;;2.63;59.34
46846;BME280;33947;46.804;134.252;2023-03-21T16:16:47;100209.97;;;2.41;59.99
46846;BME280;33947;46.804;134.252;2023-03-21T16:19:53;100161.88;;;2.08;60.51
46846;BME280;33947;46.804;134.252;2023-03-21T16:22:58;100217.81;;;2.24;60.82
46846;BME280;33947;46.804;134.252;2023-03-21T16:26:02;100192.44;;;1.99;61.19
46846;BME280;33947;46.804;134.252;2023-03-21T16:29:11;100213.44;;;2.12;61.73
46846;BME280;33947;46.804;134.252;2023-03-21T16:32:16;100215.19;;;2.19;60.52
46846;BME280;33947;46.804;134.252;2023-03-21T16:35:21;100207.34;;;2.28;60.16
46846;BME280;33947;46.804;134.252;2023-03-21T16:38:27;100212.59;;;2.28;59.66
46846;BME280;33947;46.804;134.252;2023-03-21T16:41:32;100216.09;;;2.57;59.50
46846;BME280;33947;46.804;134.252;2023-03-21T16:44:36;100222.22;;;2.98;58.64
46846;BME280;33947;46.804;134.252;2023-03-21T16:47:42;100223.09;;;3.00;58.55
46846;BME280;33947;46.804;134.252;2023-03-21T16:50:47;100227.50;;;2.88;58.52
46846;BME280;33947;46.804;134.252;2023-03-21T16:53:52;100226.63;;;2.93;58.40
46846;BME280;33947;46.804;134.252;2023-03-21T16:56:56;100217.88;;;2.84;58.05
46846;BME280;33947;46.804;134.252;2023-03-21T17:00:03;100234.50;;;2.86;59.09
46846;BME280;33947;46.804;134.252;2023-03-21T17:03:15;100229.22;;;3.08;58.60
46846;BME280;33947;46.804;134.252;2023-03-21T17:06:27;100244.94;;;3.21;57.91
46846;BME280;33947;46.804;134.252;2023-03-21T17:09:31;100233.53;;;3.37;56.94
46846;BME280;33947;46.804;134.252;2023-03-21T17:12:36;100239.66;;;3.50;57.41
46846;BME280;33947;46.804;134.252;2023-03-21T17:15:40;100236.19;;;3.25;57.64
46846;BME280;33947;46.804;134.252;2023-03-21T17:18:45;100217.88;;;2.69;59.17
46846;BME280;33947;46.804;134.252;2023-03-21T17:21:50;100233.59;;;2.72;59.10
46846;BME280;33947;46.804;134.252;2023-03-21T17:24:55;100225.72;;;2.49;59.64
46846;BME280;33947;46.804;134.252;2023-03-21T17:27:59;100239.69;;;2.46;59.29
46846;BME280;33947;46.804;134.252;2023-03-21T17:31:05;100230.91;;;2.21;61.18
46846;BME280;33947;46.804;134.252;2023-03-21T17:34:15;100248.31;;;2.05;61.07
46846;BME280;33947;46.804;134.252;2023-03-21T17:37:20;100243.94;;;2.00;61.50